createdAt,value
2023-04-08T00:00:20.583Z,9.745397
2023-04-08T00:01:20.598Z,9.745397
2023-04-08T00:02:20.691Z,9.745424
2023-04-08T00:03:20.650Z,9.745403
2023-04-08T00:04:20.623Z,9.745542
2023-04-08T00:05:20.542Z,9.745477
2023-04-08T00:06:20.571Z,9.745419
2023-04-08T00:07:20.523Z,9.745251
2023-04-08T00:08:20.539Z,9.745369
2023-04-08T00:09:20.513Z,9.745645
2023-04-08T00:10:20.509Z,9.745598
2023-04-08T00:11:20.512Z,9.745589
2023-04-08T00:12:20.487Z,9.745516
2023-04-08T00:13:20.479Z,9.745448
2023-04-08T00:14:20.478Z,9.745436
2023-04-08T00:15:20.461Z,9.745495
2023-04-08T00:16:20.544Z,9.745385
2023-04-08T00:17:20.452Z,9.745416
2023-04-08T00:18:20.444Z,9.745378
2023-04-08T00:19:20.426Z,9.745339
2023-04-08T00:20:20.424Z,9.745224
2023-04-08T00:21:20.442Z,9.745233
2023-04-08T00:22:20.431Z,9.745318
2023-04-08T00:23:20.408Z,9.745397
2023-04-08T00:24:20.399Z,9.745200
2023-04-08T00:25:21.121Z,9.745205
2023-04-08T00:26:20.425Z,9.745285
2023-04-08T00:27:20.367Z,9.745270
2023-04-08T00:28:20.358Z,9.745189
2023-04-08T00:29:20.360Z,9.745472
2023-04-08T00:30:20.370Z,9.745505
2023-04-08T00:31:20.432Z,9.745431
2023-04-08T00:32:20.354Z,9.745367
2023-04-08T00:33:20.331Z,9.745265
2023-04-08T00:34:20.315Z,9.745313
2023-04-08T00:35:20.333Z,9.745598
2023-04-08T00:36:20.331Z,9.745434
2023-04-08T00:37:20.297Z,9.745297
2023-04-08T00:38:20.280Z,9.745232
2023-04-08T00:39:20.274Z,9.745747
2023-04-08T00:40:20.269Z,9.745769
2023-04-08T00:41:20.285Z,9.745560
2023-04-08T00:42:20.252Z,9.745446
2023-04-08T00:43:20.247Z,9.745390
2023-04-08T00:44:20.240Z,9.745391
2023-04-08T00:45:20.231Z,9.745319
2023-04-08T00:46:20.300Z,9.745288
2023-04-08T00:47:20.244Z,9.745330
2023-04-08T00:48:20.205Z,9.745294
2023-04-08T00:49:20.207Z,9.745325
2023-04-08T00:50:20.199Z,9.745208
2023-04-08T00:51:20.236Z,9.745163
2023-04-08T00:52:20.187Z,9.745211
2023-04-08T00:53:20.198Z,9.745214
2023-04-08T00:54:20.166Z,9.745447
2023-04-08T00:55:20.159Z,9.745496
2023-04-08T00:56:20.177Z,9.744991
2023-04-08T00:57:20.153Z,9.745111
2023-04-08T00:58:20.141Z,9.745114
2023-04-08T00:59:20.125Z,9.745173
2023-04-08T01:00:20.123Z,9.745345
2023-04-08T01:01:20.144Z,9.745216
2023-04-08T01:02:20.208Z,9.745078
2023-04-08T01:03:20.320Z,9.745008
2023-04-08T01:04:20.170Z,9.745191
2023-04-08T01:05:20.081Z,9.745217
2023-04-08T01:06:20.066Z,9.745241
2023-04-08T01:07:20.087Z,9.745235
2023-04-08T01:08:20.062Z,9.745285
2023-04-08T01:09:20.049Z,9.745809
2023-04-08T01:10:20.048Z,9.745292
2023-04-08T01:11:20.038Z,9.745240
2023-04-08T01:12:20.060Z,9.745117
2023-04-08T01:13:20.018Z,9.745287
2023-04-08T01:14:20.034Z,9.745187
2023-04-08T01:15:20.002Z,9.744896
2023-04-08T01:16:20.045Z,9.745225
2023-04-08T01:17:20.112Z,9.745288
2023-04-08T01:18:19.981Z,9.745421
2023-04-08T01:19:19.976Z,9.745549
2023-04-08T01:20:19.965Z,9.745499
2023-04-08T01:21:19.962Z,9.745389
2023-04-08T01:22:19.992Z,9.745188
2023-04-08T01:23:19.949Z,9.745540
2023-04-08T01:24:19.944Z,9.745511
2023-04-08T01:25:19.941Z,9.745447
2023-04-08T01:26:19.920Z,9.745535
2023-04-08T01:27:19.941Z,9.745193
2023-04-08T01:28:19.925Z,9.745414
2023-04-08T01:29:19.903Z,9.745446
2023-04-08T01:30:19.920Z,9.745547
2023-04-08T01:31:19.953Z,9.745525
2023-04-08T01:32:19.917Z,9.745525
2023-04-08T01:33:19.874Z,9.745525
2023-04-08T01:34:19.877Z,9.745525
2023-04-08T01:35:19.873Z,9.745525
2023-04-08T01:36:19.847Z,9.745525
2023-04-08T01:37:19.862Z,9.745525
2023-04-08T01:38:19.830Z,9.745525
2023-04-08T01:39:19.827Z,9.745525
2023-04-08T01:40:19.826Z,9.745525
2023-04-08T01:41:19.818Z,9.745525
2023-04-08T01:42:19.828Z,9.745525
2023-04-08T01:43:19.795Z,9.745525
2023-04-08T01:44:19.787Z,9.745525
2023-04-08T01:45:19.795Z,9.745525
2023-04-08T01:46:19.790Z,9.745525
2023-04-08T01:47:19.798Z,9.745525
2023-04-08T01:48:19.763Z,9.745525
2023-04-08T01:49:19.752Z,9.745525
2023-04-08T01:50:19.760Z,9.745525
2023-04-08T01:51:19.731Z,9.745525
2023-04-08T01:52:19.761Z,9.745525
2023-04-08T01:53:19.722Z,9.745525
2023-04-08T01:54:19.711Z,9.745525
2023-04-08T01:55:19.703Z,9.745525
2023-04-08T01:56:19.701Z,9.745525
2023-04-08T01:57:19.712Z,9.745525
2023-04-08T01:58:19.693Z,9.745525
2023-04-08T01:59:19.676Z,9.745525
2023-04-08T02:00:19.668Z,9.745525
2023-04-08T02:01:19.673Z,9.745525
2023-04-08T02:02:19.735Z,9.745525
2023-04-08T02:03:19.829Z,9.745525
2023-04-08T02:04:19.740Z,9.745525
2023-04-08T02:05:19.636Z,9.745525
2023-04-08T02:06:19.628Z,9.745525
2023-04-08T02:07:19.645Z,9.745525
2023-04-08T02:08:19.612Z,9.745525
2023-04-08T02:09:19.624Z,9.745525
2023-04-08T02:10:19.596Z,9.745525
2023-04-08T02:11:19.587Z,9.745525
2023-04-08T02:12:19.583Z,9.745525
2023-04-08T02:13:19.594Z,9.745525
2023-04-08T02:14:19.588Z,9.745996
2023-04-08T02:15:19.567Z,9.745942
2023-04-08T02:16:19.594Z,9.745378
2023-04-08T02:17:19.548Z,9.745347
2023-04-08T02:18:19.564Z,9.745828
2023-04-08T02:19:19.532Z,9.745861
2023-04-08T02:20:19.522Z,9.745946
2023-04-08T02:21:19.532Z,9.745920
2023-04-08T02:22:19.512Z,9.745946
2023-04-08T02:23:19.516Z,9.745356
2023-04-08T02:24:19.491Z,9.745134
2023-04-08T02:25:19.478Z,9.745449
2023-04-08T02:26:19.470Z,9.745480
2023-04-08T02:27:19.461Z,9.745404
2023-04-08T02:28:19.482Z,9.745467
2023-04-08T02:29:19.440Z,9.745413
2023-04-08T02:30:19.456Z,9.745427
2023-04-08T02:31:19.470Z,9.745607
2023-04-08T02:32:19.425Z,9.745497
2023-04-08T02:33:19.449Z,9.745504
2023-04-08T02:34:19.408Z,9.745421
2023-04-08T02:35:19.428Z,9.745364
2023-04-08T02:36:19.388Z,9.745417
2023-04-08T02:37:20.384Z,9.745380
2023-04-08T02:38:19.421Z,9.745493
2023-04-08T02:39:19.377Z,9.745532
2023-04-08T02:40:19.372Z,9.745448
2023-04-08T02:41:19.354Z,9.745547
2023-04-08T02:42:19.354Z,9.745486
2023-04-08T02:43:19.365Z,9.745408
2023-04-08T02:44:19.322Z,9.745488
2023-04-08T02:45:19.332Z,9.745502
2023-04-08T02:46:19.384Z,9.745444
2023-04-08T02:47:19.320Z,9.745481
2023-04-08T02:48:19.327Z,9.745489
2023-04-08T02:49:19.306Z,9.745518
2023-04-08T02:50:19.294Z,9.745532
2023-04-08T02:51:19.280Z,9.745443
2023-04-08T02:52:19.267Z,9.745418
2023-04-08T02:53:19.279Z,9.745666
2023-04-08T02:54:19.259Z,9.745491
2023-04-08T02:55:19.239Z,9.745510
2023-04-08T02:56:19.238Z,9.745410
2023-04-08T02:57:19.234Z,9.745674
2023-04-08T02:58:19.243Z,9.745304
2023-04-08T02:59:19.205Z,9.745275
2023-04-08T03:00:19.206Z,9.745486
2023-04-08T03:01:19.216Z,9.745164
2023-04-08T03:02:19.259Z,9.745331
2023-04-08T03:03:19.273Z,9.745524
2023-04-08T03:04:19.173Z,9.745366
2023-04-08T03:05:19.164Z,9.745509
2023-04-08T03:06:19.160Z,9.745439
2023-04-08T03:07:19.153Z,9.745420
2023-04-08T03:08:19.172Z,9.745371
2023-04-08T03:09:19.141Z,9.745293
2023-04-08T03:10:19.131Z,9.745419
2023-04-08T03:11:19.119Z,9.745329
2023-04-08T03:12:19.118Z,9.745436
2023-04-08T03:13:19.135Z,9.745414
2023-04-08T03:14:19.107Z,9.745475
2023-04-08T03:15:19.096Z,9.745475
2023-04-08T03:16:19.122Z,9.745449
2023-04-08T03:17:19.068Z,9.745330
2023-04-08T03:18:19.080Z,9.745455
2023-04-08T03:19:19.061Z,9.745268
2023-04-08T03:20:19.044Z,9.745429
2023-04-08T03:21:19.040Z,9.745587
2023-04-08T03:22:19.033Z,9.745527
2023-04-08T03:23:19.050Z,9.745501
2023-04-08T03:24:19.037Z,9.745543
2023-04-08T03:25:19.016Z,9.745358
2023-04-08T03:26:19.008Z,9.745309
2023-04-08T03:27:19.002Z,9.745292
2023-04-08T03:28:19.015Z,9.745360
2023-04-08T03:29:18.974Z,9.745378
2023-04-08T03:30:18.970Z,9.745344
2023-04-08T03:31:18.993Z,9.745382
2023-04-08T03:32:18.952Z,9.745332
2023-04-08T03:33:18.959Z,9.745684
2023-04-08T03:34:18.934Z,9.745794
2023-04-08T03:35:19.033Z,9.745652
2023-04-08T03:36:18.930Z,9.745453
2023-04-08T03:37:18.933Z,9.745522
2023-04-08T03:38:18.942Z,9.745439
2023-04-08T03:39:18.911Z,9.745297
2023-04-08T03:40:18.892Z,9.745091
2023-04-08T03:41:18.885Z,9.745495
2023-04-08T03:42:18.874Z,9.745481
2023-04-08T03:43:18.892Z,9.745681
2023-04-08T03:44:18.856Z,9.745605
2023-04-08T03:45:18.866Z,9.745502
2023-04-08T03:46:18.891Z,9.745619
2023-04-08T03:47:18.845Z,9.745519
2023-04-08T03:48:18.845Z,9.745478
2023-04-08T03:49:18.817Z,9.745317
2023-04-08T03:50:18.810Z,9.745499
2023-04-08T03:51:18.812Z,9.745417
2023-04-08T03:52:18.794Z,9.745539
2023-04-08T03:53:18.817Z,9.745564
2023-04-08T03:54:18.781Z,9.745446
2023-04-08T03:55:18.769Z,9.745317
2023-04-08T03:56:18.764Z,9.745335
2023-04-08T03:57:18.753Z,9.745180
2023-04-08T03:58:18.779Z,9.745193
2023-04-08T03:59:18.736Z,9.745449
2023-04-08T04:00:18.729Z,9.745542
2023-04-08T04:01:18.724Z,9.745617
2023-04-08T04:02:18.783Z,9.745421
2023-04-08T04:03:18.809Z,9.745455
2023-04-08T04:04:19.003Z,9.745494
2023-04-08T04:05:18.689Z,9.745498
2023-04-08T04:06:18.682Z,9.745463
2023-04-08T04:07:18.673Z,9.745604
2023-04-08T04:08:18.684Z,9.745641
2023-04-08T04:09:18.719Z,9.745748
2023-04-08T04:10:18.647Z,9.745453
2023-04-08T04:11:18.640Z,9.745321
2023-04-08T04:12:18.633Z,9.745113
2023-04-08T04:13:18.629Z,9.744952
2023-04-08T04:14:18.641Z,9.744945
2023-04-08T04:15:18.630Z,9.745029
2023-04-08T04:16:18.709Z,9.745258
2023-04-08T04:17:18.586Z,9.745296
2023-04-08T04:18:19.665Z,9.745479
2023-04-08T04:19:18.600Z,9.745064
2023-04-08T04:20:18.568Z,9.744905
2023-04-08T04:21:18.563Z,9.745067
2023-04-08T04:22:18.562Z,9.745157
2023-04-08T04:23:18.552Z,9.744749
2023-04-08T04:24:18.564Z,9.744497
2023-04-08T04:25:18.532Z,9.744612
2023-04-08T04:26:18.530Z,9.744415
2023-04-08T04:27:18.525Z,9.744508
2023-04-08T04:28:18.500Z,9.744963
2023-04-08T04:29:18.529Z,9.744849
2023-04-08T04:30:18.501Z,9.744843
2023-04-08T04:31:18.535Z,9.744862
2023-04-08T04:32:18.475Z,9.744977
2023-04-08T04:33:18.462Z,9.744611
2023-04-08T04:34:18.491Z,9.744844
2023-04-08T04:35:18.545Z,9.745036
2023-04-08T04:36:18.449Z,9.745228
2023-04-08T04:37:18.447Z,9.745149
2023-04-08T04:38:18.433Z,9.744928
2023-04-08T04:39:18.460Z,9.744944
2023-04-08T04:40:18.408Z,9.744986
2023-04-08T04:41:18.430Z,9.744932
2023-04-08T04:42:18.401Z,9.744853
2023-04-08T04:43:18.383Z,9.745018
2023-04-08T04:44:18.404Z,9.745298
2023-04-08T04:45:18.459Z,9.745387
2023-04-08T04:46:18.392Z,9.744808
2023-04-08T04:47:18.353Z,9.744473
2023-04-08T04:48:18.349Z,9.745311
2023-04-08T04:49:18.369Z,9.745562
2023-04-08T04:50:18.326Z,9.745445
2023-04-08T04:51:18.321Z,9.745544
2023-04-08T04:52:18.315Z,9.745749
2023-04-08T04:53:18.305Z,9.745607
2023-04-08T04:54:18.321Z,9.745354
2023-04-08T04:55:18.284Z,9.745617
2023-04-08T04:56:18.280Z,9.745576
2023-04-08T04:57:18.270Z,9.745569
2023-04-08T04:58:18.264Z,9.745277
2023-04-08T04:59:18.286Z,9.745283
2023-04-08T05:00:18.244Z,9.745235
2023-04-08T05:01:18.275Z,9.745291
2023-04-08T05:02:18.485Z,9.745348
2023-04-08T05:03:18.280Z,9.745408
2023-04-08T05:04:18.245Z,9.745232
2023-04-08T05:05:18.236Z,9.745442
2023-04-08T05:06:18.213Z,9.745486
2023-04-08T05:07:18.190Z,9.745479
2023-04-08T05:08:18.193Z,9.745503
2023-04-08T05:09:18.205Z,9.745620
2023-04-08T05:10:18.175Z,9.745168
2023-04-08T05:11:18.164Z,9.745500
2023-04-08T05:12:18.157Z,9.745461
2023-04-08T05:13:18.157Z,9.745457
2023-04-08T05:14:18.164Z,9.745555
2023-04-08T05:15:18.134Z,9.745622
2023-04-08T05:16:18.301Z,9.745683
2023-04-08T05:17:18.116Z,9.745522
2023-04-08T05:18:18.114Z,9.745522
2023-04-08T05:19:18.128Z,9.745726
2023-04-08T05:20:18.102Z,9.745756
2023-04-08T05:21:18.098Z,9.745625
2023-04-08T05:22:18.083Z,9.745755
2023-04-08T05:23:18.076Z,9.745501
2023-04-08T05:24:18.093Z,9.745517
2023-04-08T05:25:18.060Z,9.745474
2023-04-08T05:26:20.251Z,9.745348
2023-04-08T05:27:18.054Z,9.745264
2023-04-08T05:28:18.035Z,9.745464
2023-04-08T05:29:18.055Z,9.745515
2023-04-08T05:30:18.018Z,9.745522
2023-04-08T05:31:18.044Z,9.745522
2023-04-08T05:32:18.005Z,9.745522
2023-04-08T05:33:18.001Z,9.745694
2023-04-08T05:34:18.014Z,9.745681
2023-04-08T05:35:18.006Z,9.745130
2023-04-08T05:36:17.984Z,9.745326
2023-04-08T05:37:17.966Z,9.745380
2023-04-08T05:38:17.970Z,9.745363
2023-04-08T05:39:17.976Z,9.745504
2023-04-08T05:40:17.952Z,9.745454
2023-04-08T05:41:17.935Z,9.745378
2023-04-08T05:42:17.930Z,9.745016
2023-04-08T05:43:17.920Z,9.744970
2023-04-08T05:44:17.946Z,9.745160
2023-04-08T05:45:17.911Z,9.745231
2023-04-08T05:46:17.927Z,9.744796
2023-04-08T05:47:17.896Z,9.745069
2023-04-08T05:48:17.885Z,9.745346
2023-04-08T05:49:17.908Z,9.745200
2023-04-08T05:50:17.875Z,9.745437
2023-04-08T05:51:17.861Z,9.745439
2023-04-08T05:52:17.866Z,9.745526
2023-04-08T05:53:17.860Z,9.745573
2023-04-08T05:54:17.866Z,9.745496
2023-04-08T05:55:17.838Z,9.745371
2023-04-08T05:56:17.821Z,9.745456
2023-04-08T05:57:17.815Z,9.745594
2023-04-08T05:58:17.799Z,9.745539
2023-04-08T05:59:17.822Z,9.745474
2023-04-08T06:00:17.784Z,9.745546
2023-04-08T06:01:17.778Z,9.745391
2023-04-08T06:02:17.793Z,9.745286
2023-04-08T06:03:20.458Z,9.745270
2023-04-08T06:04:18.882Z,9.745256
2023-04-08T06:05:17.747Z,9.745552
2023-04-08T06:06:17.740Z,9.745569
2023-04-08T06:07:17.729Z,9.745435
2023-04-08T06:08:17.725Z,9.745657
2023-04-08T06:09:17.743Z,9.745634
2023-04-08T06:10:17.714Z,9.745718
2023-04-08T06:11:17.697Z,9.745478
2023-04-08T06:12:17.683Z,9.745532
2023-04-08T06:13:17.676Z,9.745605
2023-04-08T06:14:17.693Z,9.745584
2023-04-08T06:15:17.673Z,9.745644
2023-04-08T06:16:19.535Z,9.745668
2023-04-08T06:17:17.676Z,9.745526
2023-04-08T06:18:17.657Z,9.745385
2023-04-08T06:19:17.662Z,9.745575
2023-04-08T06:20:17.626Z,9.745510
2023-04-08T06:21:17.617Z,9.745576
2023-04-08T06:22:17.607Z,9.745706
2023-04-08T06:23:17.598Z,9.745711
2023-04-08T06:24:17.614Z,9.745593
2023-04-08T06:25:17.585Z,9.745721
2023-04-08T06:26:17.580Z,9.745743
2023-04-08T06:27:17.572Z,9.745653
2023-04-08T06:28:17.564Z,9.745777
2023-04-08T06:29:17.590Z,9.745658
2023-04-08T06:30:17.556Z,9.745731
2023-04-08T06:31:17.571Z,9.745674
2023-04-08T06:32:17.544Z,9.745748
2023-04-08T06:33:17.547Z,9.745699
2023-04-08T06:34:17.557Z,9.745671
2023-04-08T06:35:17.566Z,9.745884
2023-04-08T06:36:17.508Z,9.745572
2023-04-08T06:37:17.503Z,9.745595
2023-04-08T06:38:17.493Z,9.745638
2023-04-08T06:39:17.481Z,9.745543
2023-04-08T06:40:17.499Z,9.745698
2023-04-08T06:41:17.468Z,9.745676
2023-04-08T06:42:17.455Z,9.745611
2023-04-08T06:43:17.712Z,9.745642
2023-04-08T06:44:17.449Z,9.745569
2023-04-08T06:45:17.455Z,9.745787
2023-04-08T06:46:17.453Z,9.745831
2023-04-08T06:47:17.421Z,9.745166
2023-04-08T06:48:17.421Z,9.745367
2023-04-08T06:49:17.408Z,9.745230
2023-04-08T06:50:17.429Z,9.745362
2023-04-08T06:51:17.389Z,9.745441
2023-04-08T06:52:17.382Z,9.745404
2023-04-08T06:53:17.370Z,9.745290
2023-04-08T06:54:17.366Z,9.745449
2023-04-08T06:55:17.381Z,9.745708
2023-04-08T06:56:17.363Z,9.745684
2023-04-08T06:57:17.342Z,9.745684
2023-04-08T06:58:17.331Z,9.745302
2023-04-08T06:59:17.322Z,9.745627
2023-04-08T07:00:17.345Z,9.745403
2023-04-08T07:01:17.344Z,9.745347
2023-04-08T07:02:17.334Z,9.745347
2023-04-08T07:03:17.337Z,9.745246
2023-04-08T07:04:17.330Z,9.745640
2023-04-08T07:05:17.316Z,9.745520
2023-04-08T07:06:17.272Z,9.745157
2023-04-08T07:07:17.261Z,9.745090
2023-04-08T07:08:17.250Z,9.745430
2023-04-08T07:09:17.247Z,9.745503
2023-04-08T07:10:17.359Z,9.745249
2023-04-08T07:11:17.243Z,9.745538
2023-04-08T07:12:17.221Z,9.745399
2023-04-08T07:13:17.236Z,9.745651
2023-04-08T07:14:17.212Z,9.745640
2023-04-08T07:15:17.225Z,9.745382
2023-04-08T07:16:17.215Z,9.745131
2023-04-08T07:17:17.185Z,9.745828
2023-04-08T07:18:17.176Z,9.745842
2023-04-08T07:19:17.170Z,9.745859
2023-04-08T07:20:17.195Z,9.745909
2023-04-08T07:21:17.156Z,9.745502
2023-04-08T07:22:18.036Z,9.745521
2023-04-08T07:23:17.141Z,9.745525
2023-04-08T07:24:17.128Z,9.745478
2023-04-08T07:25:17.150Z,9.745217
2023-04-08T07:26:17.121Z,9.745401
2023-04-08T07:27:17.103Z,9.745346
2023-04-08T07:28:17.095Z,9.745337
2023-04-08T07:29:17.085Z,9.745349
2023-04-08T07:30:17.119Z,9.745323
2023-04-08T07:31:17.094Z,9.745523
2023-04-08T07:32:17.067Z,9.745676
2023-04-08T07:33:17.058Z,9.745554
2023-04-08T07:34:17.057Z,9.745320
2023-04-08T07:35:17.066Z,9.745088
2023-04-08T07:36:17.034Z,9.745145
2023-04-08T07:37:17.027Z,9.745285
2023-04-08T07:38:17.017Z,9.745237
2023-04-08T07:39:17.022Z,9.745382
2023-04-08T07:40:17.033Z,9.745687
2023-04-08T07:41:17.013Z,9.745365
2023-04-08T07:42:16.988Z,9.745600
2023-04-08T07:43:17.001Z,9.745634
2023-04-08T07:44:16.983Z,9.745502
2023-04-08T07:45:16.990Z,9.745480
2023-04-08T07:46:16.978Z,9.745476
2023-04-08T07:47:16.947Z,9.745388
2023-04-08T07:48:16.938Z,9.745747
2023-04-08T07:49:16.933Z,9.745580
2023-04-08T07:50:16.955Z,9.745523
2023-04-08T07:51:16.922Z,9.745536
2023-04-08T07:52:16.914Z,9.745536
2023-04-08T07:53:16.904Z,9.745600
2023-04-08T07:54:16.895Z,9.745439
2023-04-08T07:55:16.912Z,9.745465
2023-04-08T07:56:16.877Z,9.745654
2023-04-08T07:57:16.891Z,9.745584
2023-04-08T07:58:16.870Z,9.745400
2023-04-08T07:59:16.856Z,9.745337
2023-04-08T08:00:16.884Z,9.745185
2023-04-08T08:01:16.834Z,9.745444
2023-04-08T08:02:16.953Z,9.745508
2023-04-08T08:03:16.868Z,9.745572
2023-04-08T08:04:16.961Z,9.745507
2023-04-08T08:05:16.925Z,9.745296
2023-04-08T08:06:16.803Z,9.745221
2023-04-08T08:07:16.798Z,9.745301
2023-04-08T08:08:16.780Z,9.745351
2023-04-08T08:09:16.777Z,9.745413
2023-04-08T08:10:16.796Z,9.745453
2023-04-08T08:11:16.790Z,9.745468
2023-04-08T08:12:16.755Z,9.745497
2023-04-08T08:13:16.744Z,9.745521
2023-04-08T08:14:16.742Z,9.745637
2023-04-08T08:15:16.754Z,9.745587
2023-04-08T08:16:16.761Z,9.745445
2023-04-08T08:17:16.712Z,9.745469
2023-04-08T08:18:16.710Z,9.745434
2023-04-08T08:19:16.696Z,9.745504
2023-04-08T08:20:16.738Z,9.745483
2023-04-08T08:21:16.733Z,9.745378
2023-04-08T08:22:16.674Z,9.745416
2023-04-08T08:23:16.666Z,9.745178
2023-04-08T08:24:16.658Z,9.745423
2023-04-08T08:25:16.680Z,9.745342
2023-04-08T08:26:16.646Z,9.745448
2023-04-08T08:27:16.639Z,9.745397
2023-04-08T08:28:16.624Z,9.745335
2023-04-08T08:29:16.622Z,9.745251
2023-04-08T08:30:16.633Z,9.745321
2023-04-08T08:31:16.631Z,9.745016
2023-04-08T08:32:16.598Z,9.745379
2023-04-08T08:33:16.590Z,9.745306
2023-04-08T08:34:16.580Z,9.745316
2023-04-08T08:35:16.606Z,9.745125
2023-04-08T08:36:16.620Z,9.745214
2023-04-08T08:37:16.588Z,9.745254
2023-04-08T08:38:16.568Z,9.745207
2023-04-08T08:39:16.555Z,9.745163
2023-04-08T08:40:16.563Z,9.745352
2023-04-08T08:41:16.530Z,9.745411
2023-04-08T08:42:16.525Z,9.745353
2023-04-08T08:43:16.521Z,9.745610
2023-04-08T08:44:16.511Z,9.745525
2023-04-08T08:45:16.532Z,9.745486
2023-04-08T08:46:16.513Z,9.745377
2023-04-08T08:47:16.494Z,9.745418
2023-04-08T08:48:16.484Z,9.745472
2023-04-08T08:49:16.470Z,9.745135
2023-04-08T08:50:16.500Z,9.745435
2023-04-08T08:51:16.459Z,9.745383
2023-04-08T08:52:16.453Z,9.745605
2023-04-08T08:53:16.464Z,9.745586
2023-04-08T08:54:16.431Z,9.745530
2023-04-08T08:55:32.490Z,9.745696
2023-04-08T08:56:19.114Z,9.745487
2023-04-08T08:57:17.408Z,9.745343
2023-04-08T08:58:16.401Z,9.745514
2023-04-08T08:59:16.390Z,9.745678
2023-04-08T09:00:16.402Z,9.745749
2023-04-08T09:01:16.374Z,9.745749
2023-04-08T09:02:16.522Z,9.745707
2023-04-08T09:03:16.573Z,9.745525
2023-04-08T09:04:16.610Z,9.745727
2023-04-08T09:05:16.517Z,9.745592
2023-04-08T09:06:16.325Z,9.745509
2023-04-08T09:07:17.327Z,9.745758
2023-04-08T09:08:16.315Z,9.745572
2023-04-08T09:09:16.316Z,9.745463
2023-04-08T09:10:16.306Z,9.745603
2023-04-08T09:11:16.331Z,9.745728
2023-04-08T09:12:17.968Z,9.745522
2023-04-08T09:13:16.270Z,9.745537
2023-04-08T09:14:17.278Z,9.745377
2023-04-08T09:15:16.264Z,9.745210
2023-04-08T09:16:16.295Z,9.745287
2023-04-08T09:17:16.246Z,9.745477
2023-04-08T09:18:17.779Z,9.745679
2023-04-08T09:19:16.234Z,9.745719
2023-04-08T09:20:16.226Z,9.745520
2023-04-08T09:21:16.244Z,9.745476
2023-04-08T09:22:16.218Z,9.745459
2023-04-08T09:23:16.199Z,9.745409
2023-04-08T09:24:17.795Z,9.745422
2023-04-08T09:25:16.186Z,9.745557
2023-04-08T09:26:16.236Z,9.745378
2023-04-08T09:27:16.170Z,9.745222
2023-04-08T09:28:16.159Z,9.745410
2023-04-08T09:29:25.981Z,9.745290
2023-04-08T09:30:18.143Z,9.745409
2023-04-08T09:31:16.188Z,9.745061
2023-04-08T09:32:16.124Z,9.745560
2023-04-08T09:33:16.118Z,9.745240
2023-04-08T09:34:16.114Z,9.745685
2023-04-08T09:35:16.108Z,9.745522
2023-04-08T09:36:16.150Z,9.745750
2023-04-08T09:37:16.090Z,9.745350
2023-04-08T09:38:16.085Z,9.745656
2023-04-08T09:39:16.073Z,9.745469
2023-04-08T09:40:16.069Z,9.745418
2023-04-08T09:41:16.096Z,9.744746
2023-04-08T09:42:16.058Z,9.744767
2023-04-08T09:43:16.033Z,9.745292
2023-04-08T09:44:16.028Z,9.745540
2023-04-08T09:45:16.037Z,9.745569
2023-04-08T09:46:16.185Z,9.745460
2023-04-08T09:47:16.012Z,9.745193
2023-04-08T09:48:16.602Z,9.745292
2023-04-08T09:49:16.991Z,9.745568
2023-04-08T09:50:15.988Z,9.745273
2023-04-08T09:51:16.006Z,9.745416
2023-04-08T09:52:15.989Z,9.745195
2023-04-08T09:53:15.959Z,9.745201
2023-04-08T09:54:15.950Z,9.745361
2023-04-08T09:55:15.947Z,9.745593
2023-04-08T09:56:15.961Z,9.745433
2023-04-08T09:57:15.927Z,9.745493
2023-04-08T09:58:15.918Z,9.745575
2023-04-08T09:59:15.913Z,9.745446
2023-04-08T10:00:15.902Z,9.745769
2023-04-08T10:01:15.964Z,9.745250
2023-04-08T10:02:15.938Z,9.745579
2023-04-08T10:03:16.073Z,9.745845
2023-04-08T10:04:15.901Z,9.745821
2023-04-08T10:05:15.865Z,9.745534
2023-04-08T10:06:15.884Z,9.745595
2023-04-08T10:07:15.840Z,9.745275
2023-04-08T10:08:16.845Z,9.745128
2023-04-08T10:09:15.833Z,9.746480
2023-04-08T10:10:15.832Z,9.746604
2023-04-08T10:11:15.818Z,9.745226
2023-04-08T10:12:15.836Z,9.745277
2023-04-08T10:13:15.807Z,9.745321
2023-04-08T10:14:15.793Z,9.745426
2023-04-08T10:15:15.799Z,9.745523
2023-04-08T10:16:15.799Z,9.745438
2023-04-08T10:17:15.793Z,9.745435
2023-04-08T10:18:15.766Z,9.745774
2023-04-08T10:19:15.755Z,9.745078
2023-04-08T10:20:15.746Z,9.745724
2023-04-08T10:21:15.751Z,9.745669
2023-04-08T10:22:15.766Z,9.745698
2023-04-08T10:23:15.731Z,9.745504
2023-04-08T10:24:15.728Z,9.745504
2023-04-08T10:25:15.732Z,9.745353
2023-04-08T10:26:15.705Z,9.745042
2023-04-08T10:27:15.716Z,9.745053
2023-04-08T10:28:15.690Z,9.745445
2023-04-08T10:29:15.691Z,9.745522
2023-04-08T10:30:15.675Z,9.745350
2023-04-08T10:31:15.666Z,9.745466
2023-04-08T10:32:15.682Z,9.745749
2023-04-08T10:33:15.648Z,9.745914
2023-04-08T10:34:15.647Z,9.745966
2023-04-08T10:35:15.639Z,9.746217
2023-04-08T10:36:15.673Z,9.746344
2023-04-08T10:37:15.646Z,9.746228
2023-04-08T10:38:15.610Z,9.746014
2023-04-08T10:39:15.603Z,9.745718
2023-04-08T10:40:15.602Z,9.745641
2023-04-08T10:41:15.591Z,9.745641
2023-04-08T10:42:15.601Z,9.745197
2023-04-08T10:43:15.579Z,9.745242
2023-04-08T10:44:15.568Z,9.745266
2023-04-08T10:45:15.558Z,9.745381
2023-04-08T10:46:15.596Z,9.745381
2023-04-08T10:47:15.579Z,9.745381
2023-04-08T10:48:15.530Z,9.745381
2023-04-08T10:49:15.530Z,9.745381
2023-04-08T10:50:15.600Z,9.745381
2023-04-08T10:51:15.522Z,9.745381
2023-04-08T10:52:15.541Z,9.745381
2023-04-08T10:53:15.503Z,9.745381
2023-04-08T10:54:15.495Z,9.745912
2023-04-08T10:55:15.494Z,9.746101
2023-04-08T10:56:15.552Z,9.746053
2023-04-08T10:57:15.507Z,9.746003
2023-04-08T10:58:15.468Z,9.745864
2023-04-08T10:59:15.456Z,9.745863
2023-04-08T11:00:15.469Z,9.745773
2023-04-08T11:01:15.460Z,9.746022
2023-04-08T11:02:15.602Z,9.746135
2023-04-08T11:03:15.917Z,9.746155
2023-04-08T11:04:16.587Z,9.745931
2023-04-08T11:05:15.411Z,9.746115
2023-04-08T11:06:15.411Z,9.745871
2023-04-08T11:07:15.428Z,9.745881
2023-04-08T11:08:15.389Z,9.745750
2023-04-08T11:09:15.387Z,9.745715
2023-04-08T11:10:15.463Z,9.745972
2023-04-08T11:11:15.429Z,9.746041
2023-04-08T11:12:15.382Z,9.745987
2023-04-08T11:13:15.353Z,9.745923
2023-04-08T11:14:15.345Z,9.745621
2023-04-08T11:15:15.330Z,9.745214
2023-04-08T11:16:18.253Z,9.745364
2023-04-08T11:17:16.348Z,9.745210
2023-04-08T11:18:15.313Z,9.745382
2023-04-08T11:19:15.304Z,9.745544
2023-04-08T11:20:15.305Z,9.745448
2023-04-08T11:21:15.293Z,9.745543
2023-04-08T11:22:15.308Z,9.745497
2023-04-08T11:23:15.285Z,9.745625
2023-04-08T11:24:15.268Z,9.745767
2023-04-08T11:25:15.276Z,9.745589
2023-04-08T11:26:15.255Z,9.745641
2023-04-08T11:27:15.280Z,9.745423
2023-04-08T11:28:15.244Z,9.745590
2023-04-08T11:29:15.276Z,9.745553
2023-04-08T11:30:15.304Z,9.745413
2023-04-08T11:31:15.251Z,9.745448
2023-04-08T11:32:15.238Z,9.745594
2023-04-08T11:33:15.195Z,9.745517
2023-04-08T11:34:15.194Z,9.745452
2023-04-08T11:35:15.185Z,9.745190
2023-04-08T11:36:15.235Z,9.745438
2023-04-08T11:37:15.169Z,9.745710
2023-04-08T11:38:15.180Z,9.745718
2023-04-08T11:39:15.160Z,9.745491
2023-04-08T11:40:15.145Z,9.745925
2023-04-08T11:41:15.132Z,9.746170
2023-04-08T11:42:15.136Z,9.745861
2023-04-08T11:43:15.141Z,9.745688
2023-04-08T11:44:15.107Z,9.745271